sensor_id;sensor_type;location;lat;lon;timestamp;P1;durP1;ratioP1;P2;durP2;ratioP2
5823;SDS011;2938;52.254;12.988;2023-04-30T00:01:28;6.97;;;3.42;;
5823;SDS011;2938;52.254;12.988;2023-04-30T00:03:54;5.40;;;4.55;;
5823;SDS011;2938;52.254;12.988;2023-04-30T00:06:19;10.82;;;3.80;;
5823;SDS011;2938;52.254;12.988;2023-04-30T00:08:45;5.13;;;4.03;;
5823;SDS011;2938;52.254;12.988;2023-04-30T00:11:10;13.82;;;4.38;;
5823;SDS011;2938;52.254;12.988;2023-04-30T00:13:38;4.68;;;4.00;;
5823;SDS011;2938;52.254;12.988;2023-04-30T00:16:03;5.03;;;4.32;;
5823;SDS011;2938;52.254;12.988;2023-04-30T00:18:29;5.10;;;3.97;;
5823;SDS011;2938;52.254;12.988;2023-04-30T00:20:54;6.88;;;3.60;;
5823;SDS011;2938;52.254;12.988;2023-04-30T00:23:20;10.98;;;4.55;;
5823;SDS011;2938;52.254;12.988;2023-04-30T00:25:45;8.30;;;3.53;;
5823;SDS011;2938;52.254;12.988;2023-04-30T00:28:10;8.18;;;4.22;;
5823;SDS011;2938;52.254;12.988;2023-04-30T00:30:35;4.93;;;4.05;;
5823;SDS011;2938;52.254;12.988;2023-04-30T00:33:01;9.98;;;4.32;;
5823;SDS011;2938;52.254;12.988;2023-04-30T00:35:26;5.45;;;3.53;;
5823;SDS011;2938;52.254;12.988;2023-04-30T00:37:51;7.18;;;3.88;;
5823;SDS011;2938;52.254;12.988;2023-04-30T00:40:17;7.45;;;3.92;;
5823;SDS011;2938;52.254;12.988;2023-04-30T00:42:42;9.93;;;4.22;;
5823;SDS011;2938;52.254;12.988;2023-04-30T00:45:07;11.68;;;4.22;;
5823;SDS011;2938;52.254;12.988;2023-04-30T00:47:33;11.32;;;3.85;;
5823;SDS011;2938;52.254;12.988;2023-04-30T00:50:01;6.47;;;5.15;;
5823;SDS011;2938;52.254;12.988;2023-04-30T00:52:26;9.75;;;4.78;;
5823;SDS011;2938;52.254;12.988;2023-04-30T00:54:52;10.60;;;4.30;;
5823;SDS011;2938;52.254;12.988;2023-04-30T00:57:18;9.02;;;4.72;;
5823;SDS011;2938;52.254;12.988;2023-04-30T00:59:44;13.77;;;4.57;;
5823;SDS011;2938;52.254;12.988;2023-04-30T01:02:10;6.30;;;3.67;;
5823;SDS011;2938;52.254;12.988;2023-04-30T01:04:36;7.30;;;4.75;;
5823;SDS011;2938;52.254;12.988;2023-04-30T01:07:02;7.05;;;5.40;;
5823;SDS011;2938;52.254;12.988;2023-04-30T01:09:27;12.50;;;4.47;;
5823;SDS011;2938;52.254;12.988;2023-04-30T01:12:12;7.78;;;5.40;;
5823;SDS011;2938;52.254;12.988;2023-04-30T01:17:36;10.55;;;4.80;;
5823;SDS011;2938;52.254;12.988;2023-04-30T01:20:03;4.15;;;3.72;;
5823;SDS011;2938;52.254;12.988;2023-04-30T01:25:41;7.50;;;4.22;;
5823;SDS011;2938;52.254;12.988;2023-04-30T01:28:15;8.82;;;5.45;;
5823;SDS011;2938;52.254;12.988;2023-04-30T01:30:44;8.40;;;5.13;;
5823;SDS011;2938;52.254;12.988;2023-04-30T01:33:10;10.25;;;5.28;;
5823;SDS011;2938;52.254;12.988;2023-04-30T01:41:05;7.63;;;5.63;;
5823;SDS011;2938;52.254;12.988;2023-04-30T01:43:38;7.05;;;4.22;;
5823;SDS011;2938;52.254;12.988;2023-04-30T01:46:28;7.03;;;4.55;;
5823;SDS011;2938;52.254;12.988;2023-04-30T01:49:12;10.07;;;4.45;;
5823;SDS011;2938;52.254;12.988;2023-04-30T01:52:08;8.63;;;4.35;;
5823;SDS011;2938;52.254;12.988;2023-04-30T01:54:42;12.27;;;7.57;;
5823;SDS011;2938;52.254;12.988;2023-04-30T01:57:19;8.85;;;4.72;;
5823;SDS011;2938;52.254;12.988;2023-04-30T01:59:48;8.63;;;5.72;;
5823;SDS011;2938;52.254;12.988;2023-04-30T02:02:13;10.85;;;6.30;;
5823;SDS011;2938;52.254;12.988;2023-04-30T02:04:40;9.60;;;5.38;;
5823;SDS011;2938;52.254;12.988;2023-04-30T02:07:12;13.03;;;5.97;;
5823;SDS011;2938;52.254;12.988;2023-04-30T02:09:45;10.98;;;5.20;;
5823;SDS011;2938;52.254;12.988;2023-04-30T02:12:10;6.35;;;4.85;;
5823;SDS011;2938;52.254;12.988;2023-04-30T02:14:35;9.00;;;5.65;;
5823;SDS011;2938;52.254;12.988;2023-04-30T02:17:00;17.58;;;5.85;;
5823;SDS011;2938;52.254;12.988;2023-04-30T02:19:26;7.75;;;6.45;;
5823;SDS011;2938;52.254;12.988;2023-04-30T02:21:51;8.95;;;5.00;;
5823;SDS011;2938;52.254;12.988;2023-04-30T02:24:16;10.77;;;5.40;;
5823;SDS011;2938;52.254;12.988;2023-04-30T02:26:42;6.63;;;5.00;;
5823;SDS011;2938;52.254;12.988;2023-04-30T02:29:07;9.57;;;5.72;;
5823;SDS011;2938;52.254;12.988;2023-04-30T02:31:32;8.38;;;5.15;;
5823;SDS011;2938;52.254;12.988;2023-04-30T02:33:58;8.88;;;5.70;;
5823;SDS011;2938;52.254;12.988;2023-04-30T02:36:26;10.27;;;4.43;;
5823;SDS011;2938;52.254;12.988;2023-04-30T02:38:51;11.48;;;5.18;;
5823;SDS011;2938;52.254;12.988;2023-04-30T02:41:16;6.13;;;5.38;;
5823;SDS011;2938;52.254;12.988;2023-04-30T02:43:42;8.68;;;5.32;;
5823;SDS011;2938;52.254;12.988;2023-04-30T02:46:07;12.93;;;5.43;;
5823;SDS011;2938;52.254;12.988;2023-04-30T02:48:32;11.95;;;5.85;;
5823;SDS011;2938;52.254;12.988;2023-04-30T02:50:57;10.90;;;5.38;;
5823;SDS011;2938;52.254;12.988;2023-04-30T02:53:23;9.65;;;6.18;;
5823;SDS011;2938;52.254;12.988;2023-04-30T02:55:48;12.77;;;5.82;;
5823;SDS011;2938;52.254;12.988;2023-04-30T02:58:13;7.75;;;5.30;;
5823;SDS011;2938;52.254;12.988;2023-04-30T03:00:39;10.90;;;5.93;;
5823;SDS011;2938;52.254;12.988;2023-04-30T03:03:04;10.55;;;5.82;;
5823;SDS011;2938;52.254;12.988;2023-04-30T03:05:29;11.70;;;6.15;;
5823;SDS011;2938;52.254;12.988;2023-04-30T03:07:55;10.48;;;5.40;;
5823;SDS011;2938;52.254;12.988;2023-04-30T03:10:20;7.80;;;5.93;;
5823;SDS011;2938;52.254;12.988;2023-04-30T03:12:45;15.55;;;6.57;;
5823;SDS011;2938;52.254;12.988;2023-04-30T03:15:10;6.57;;;5.35;;
5823;SDS011;2938;52.254;12.988;2023-04-30T03:17:36;15.88;;;5.75;;
5823;SDS011;2938;52.254;12.988;2023-04-30T03:20:01;20.48;;;5.95;;
5823;SDS011;2938;52.254;12.988;2023-04-30T03:22:26;8.90;;;6.03;;
5823;SDS011;2938;52.254;12.988;2023-04-30T03:24:52;11.10;;;5.63;;
5823;SDS011;2938;52.254;12.988;2023-04-30T03:27:17;9.70;;;5.95;;
5823;SDS011;2938;52.254;12.988;2023-04-30T03:29:42;6.85;;;6.13;;
5823;SDS011;2938;52.254;12.988;2023-04-30T03:32:08;10.60;;;5.88;;
5823;SDS011;2938;52.254;12.988;2023-04-30T03:34:33;12.18;;;5.50;;
5823;SDS011;2938;52.254;12.988;2023-04-30T03:36:58;7.65;;;5.60;;
5823;SDS011;2938;52.254;12.988;2023-04-30T03:39:25;9.48;;;5.50;;
5823;SDS011;2938;52.254;12.988;2023-04-30T03:41:53;10.50;;;5.28;;
5823;SDS011;2938;52.254;12.988;2023-04-30T03:44:19;10.32;;;5.68;;
5823;SDS011;2938;52.254;12.988;2023-04-30T03:46:44;17.15;;;5.43;;
5823;SDS011;2938;52.254;12.988;2023-04-30T03:49:10;7.03;;;5.75;;
5823;SDS011;2938;52.254;12.988;2023-04-30T03:51:35;6.95;;;4.90;;
5823;SDS011;2938;52.254;12.988;2023-04-30T03:54:05;9.15;;;5.07;;
5823;SDS011;2938;52.254;12.988;2023-04-30T03:56:31;13.02;;;4.80;;
5823;SDS011;2938;52.254;12.988;2023-04-30T03:58:57;12.18;;;5.95;;
5823;SDS011;2938;52.254;12.988;2023-04-30T04:01:22;5.60;;;4.47;;
5823;SDS011;2938;52.254;12.988;2023-04-30T04:03:48;10.43;;;5.40;;
5823;SDS011;2938;52.254;12.988;2023-04-30T04:06:13;11.90;;;5.55;;
5823;SDS011;2938;52.254;12.988;2023-04-30T04:08:39;12.70;;;5.45;;
5823;SDS011;2938;52.254;12.988;2023-04-30T04:11:07;10.05;;;5.55;;
5823;SDS011;2938;52.254;12.988;2023-04-30T04:13:32;9.45;;;4.85;;
5823;SDS011;2938;52.254;12.988;2023-04-30T04:15:58;9.68;;;5.50;;
5823;SDS011;2938;52.254;12.988;2023-04-30T04:18:23;12.38;;;6.18;;
5823;SDS011;2938;52.254;12.988;2023-04-30T04:20:48;9.68;;;5.15;;
5823;SDS011;2938;52.254;12.988;2023-04-30T04:23:13;16.60;;;7.03;;
5823;SDS011;2938;52.254;12.988;2023-04-30T04:25:39;9.15;;;6.07;;
5823;SDS011;2938;52.254;12.988;2023-04-30T04:28:05;7.93;;;5.63;;
5823;SDS011;2938;52.254;12.988;2023-04-30T04:30:31;16.25;;;6.82;;
5823;SDS011;2938;52.254;12.988;2023-04-30T04:32:56;16.25;;;6.07;;
5823;SDS011;2938;52.254;12.988;2023-04-30T04:35:22;9.48;;;6.57;;
5823;SDS011;2938;52.254;12.988;2023-04-30T04:37:47;9.25;;;5.97;;
5823;SDS011;2938;52.254;12.988;2023-04-30T04:40:13;12.48;;;6.20;;
5823;SDS011;2938;52.254;12.988;2023-04-30T04:42:38;12.05;;;5.22;;
5823;SDS011;2938;52.254;12.988;2023-04-30T04:45:04;13.20;;;5.47;;
5823;SDS011;2938;52.254;12.988;2023-04-30T04:47:31;11.18;;;5.93;;
5823;SDS011;2938;52.254;12.988;2023-04-30T04:49:57;20.58;;;5.72;;
5823;SDS011;2938;52.254;12.988;2023-04-30T04:52:22;9.60;;;4.53;;
5823;SDS011;2938;52.254;12.988;2023-04-30T04:54:48;13.65;;;5.60;;
5823;SDS011;2938;52.254;12.988;2023-04-30T04:57:13;9.40;;;4.95;;
5823;SDS011;2938;52.254;12.988;2023-04-30T04:59:38;18.48;;;5.55;;
5823;SDS011;2938;52.254;12.988;2023-04-30T05:02:04;12.70;;;4.70;;
5823;SDS011;2938;52.254;12.988;2023-04-30T05:04:29;9.52;;;4.50;;
5823;SDS011;2938;52.254;12.988;2023-04-30T05:06:54;8.45;;;4.57;;
5823;SDS011;2938;52.254;12.988;2023-04-30T05:09:19;14.55;;;5.30;;
5823;SDS011;2938;52.254;12.988;2023-04-30T05:11:45;9.05;;;4.25;;
5823;SDS011;2938;52.254;12.988;2023-04-30T05:14:12;15.60;;;3.90;;
5823;SDS011;2938;52.254;12.988;2023-04-30T05:16:38;9.57;;;3.85;;
5823;SDS011;2938;52.254;12.988;2023-04-30T05:19:03;11.65;;;3.25;;
5823;SDS011;2938;52.254;12.988;2023-04-30T05:21:28;10.00;;;3.70;;
5823;SDS011;2938;52.254;12.988;2023-04-30T05:23:55;15.15;;;3.63;;
5823;SDS011;2938;52.254;12.988;2023-04-30T05:26:21;12.70;;;3.20;;
5823;SDS011;2938;52.254;12.988;2023-04-30T05:28:48;10.80;;;4.07;;
5823;SDS011;2938;52.254;12.988;2023-04-30T05:31:13;9.10;;;4.07;;
5823;SDS011;2938;52.254;12.988;2023-04-30T05:33:38;10.23;;;3.75;;
5823;SDS011;2938;52.254;12.988;2023-04-30T05:36:05;8.60;;;3.17;;
5823;SDS011;2938;52.254;12.988;2023-04-30T05:38:30;11.48;;;3.95;;
5823;SDS011;2938;52.254;12.988;2023-04-30T05:40:55;16.35;;;3.97;;
5823;SDS011;2938;52.254;12.988;2023-04-30T05:43:21;8.90;;;3.53;;
5823;SDS011;2938;52.254;12.988;2023-04-30T05:45:46;6.65;;;3.72;;
5823;SDS011;2938;52.254;12.988;2023-04-30T05:48:11;9.40;;;3.80;;
5823;SDS011;2938;52.254;12.988;2023-04-30T05:50:36;9.13;;;2.95;;
5823;SDS011;2938;52.254;12.988;2023-04-30T05:53:02;19.15;;;3.40;;
5823;SDS011;2938;52.254;12.988;2023-04-30T05:55:27;6.97;;;3.20;;
5823;SDS011;2938;52.254;12.988;2023-04-30T05:57:52;11.85;;;4.20;;
5823;SDS011;2938;52.254;12.988;2023-04-30T06:00:18;8.27;;;3.55;;
5823;SDS011;2938;52.254;12.988;2023-04-30T06:02:43;9.07;;;3.30;;
5823;SDS011;2938;52.254;12.988;2023-04-30T06:05:08;10.15;;;4.15;;
5823;SDS011;2938;52.254;12.988;2023-04-30T06:07:34;6.15;;;2.65;;
5823;SDS011;2938;52.254;12.988;2023-04-30T06:09:59;5.80;;;2.38;;
5823;SDS011;2938;52.254;12.988;2023-04-30T06:12:24;11.65;;;4.53;;
5823;SDS011;2938;52.254;12.988;2023-04-30T06:14:52;8.57;;;2.72;;
5823;SDS011;2938;52.254;12.988;2023-04-30T06:17:17;17.42;;;3.42;;
5823;SDS011;2938;52.254;12.988;2023-04-30T06:19:43;8.82;;;2.88;;
5823;SDS011;2938;52.254;12.988;2023-04-30T06:22:08;14.00;;;4.03;;
5823;SDS011;2938;52.254;12.988;2023-04-30T06:24:33;16.00;;;3.55;;
5823;SDS011;2938;52.254;12.988;2023-04-30T06:26:59;11.63;;;3.30;;
5823;SDS011;2938;52.254;12.988;2023-04-30T06:29:24;5.78;;;2.95;;
5823;SDS011;2938;52.254;12.988;2023-04-30T06:31:49;14.27;;;4.30;;
5823;SDS011;2938;52.254;12.988;2023-04-30T06:34:15;12.45;;;2.67;;
5823;SDS011;2938;52.254;12.988;2023-04-30T06:36:41;11.35;;;2.95;;
5823;SDS011;2938;52.254;12.988;2023-04-30T06:39:06;8.07;;;3.00;;
5823;SDS011;2938;52.254;12.988;2023-04-30T06:41:31;18.05;;;4.78;;
5823;SDS011;2938;52.254;12.988;2023-04-30T06:43:56;7.47;;;3.20;;
5823;SDS011;2938;52.254;12.988;2023-04-30T06:46:22;9.05;;;3.15;;
5823;SDS011;2938;52.254;12.988;2023-04-30T06:48:47;7.05;;;2.78;;
5823;SDS011;2938;52.254;12.988;2023-04-30T06:51:12;9.50;;;3.33;;
5823;SDS011;2938;52.254;12.988;2023-04-30T06:53:38;8.80;;;3.08;;
5823;SDS011;2938;52.254;12.988;2023-04-30T06:56:03;15.70;;;3.33;;
5823;SDS011;2938;52.254;12.988;2023-04-30T06:58:28;8.60;;;4.15;;
5823;SDS011;2938;52.254;12.988;2023-04-30T07:00:54;9.07;;;4.00;;
5823;SDS011;2938;52.254;12.988;2023-04-30T07:03:19;12.50;;;4.07;;
5823;SDS011;2938;52.254;12.988;2023-04-30T07:05:45;17.58;;;4.13;;
5823;SDS011;2938;52.254;12.988;2023-04-30T07:08:10;14.85;;;4.25;;
5823;SDS011;2938;52.254;12.988;2023-04-30T07:10:37;12.70;;;3.55;;
5823;SDS011;2938;52.254;12.988;2023-04-30T07:13:05;16.70;;;4.05;;
5823;SDS011;2938;52.254;12.988;2023-04-30T07:15:32;7.72;;;4.07;;
5823;SDS011;2938;52.254;12.988;2023-04-30T07:17:57;4.75;;;3.53;;
5823;SDS011;2938;52.254;12.988;2023-04-30T07:20:23;8.38;;;3.90;;
5823;SDS011;2938;52.254;12.988;2023-04-30T07:22:49;20.00;;;5.25;;
5823;SDS011;2938;52.254;12.988;2023-04-30T07:25:14;16.23;;;4.43;;
5823;SDS011;2938;52.254;12.988;2023-04-30T07:27:40;19.90;;;4.43;;
5823;SDS011;2938;52.254;12.988;2023-04-30T07:30:08;10.25;;;3.60;;
5823;SDS011;2938;52.254;12.988;2023-04-30T07:32:34;14.75;;;3.75;;
5823;SDS011;2938;52.254;12.988;2023-04-30T07:35:00;10.88;;;3.70;;
5823;SDS011;2938;52.254;12.988;2023-04-30T07:37:25;9.88;;;4.25;;
5823;SDS011;2938;52.254;12.988;2023-04-30T07:39:51;6.80;;;3.22;;
5823;SDS011;2938;52.254;12.988;2023-04-30T07:42:16;13.27;;;3.30;;
5823;SDS011;2938;52.254;12.988;2023-04-30T07:44:41;10.73;;;4.35;;
5823;SDS011;2938;52.254;12.988;2023-04-30T07:47:06;8.85;;;3.28;;
5823;SDS011;2938;52.254;12.988;2023-04-30T07:49:32;9.40;;;3.35;;
5823;SDS011;2938;52.254;12.988;2023-04-30T07:51:57;13.25;;;4.55;;
5823;SDS011;2938;52.254;12.988;2023-04-30T07:54:24;7.50;;;3.17;;
5823;SDS011;2938;52.254;12.988;2023-04-30T07:56:50;11.15;;;3.58;;
5823;SDS011;2938;52.254;12.988;2023-04-30T07:59:15;17.10;;;4.68;;
5823;SDS011;2938;52.254;12.988;2023-04-30T08:01:41;11.32;;;3.70;;
5823;SDS011;2938;52.254;12.988;2023-04-30T08:04:06;5.82;;;3.35;;
5823;SDS011;2938;52.254;12.988;2023-04-30T08:06:32;14.23;;;3.55;;
5823;SDS011;2938;52.254;12.988;2023-04-30T08:09:00;8.02;;;3.90;;
5823;SDS011;2938;52.254;12.988;2023-04-30T08:11:25;7.60;;;3.17;;
5823;SDS011;2938;52.254;12.988;2023-04-30T08:13:51;8.48;;;3.38;;
5823;SDS011;2938;52.254;12.988;2023-04-30T08:16:16;8.60;;;4.07;;
5823;SDS011;2938;52.254;12.988;2023-04-30T08:18:41;6.32;;;3.15;;
5823;SDS011;2938;52.254;12.988;2023-04-30T08:21:09;14.27;;;3.55;;
5823;SDS011;2938;52.254;12.988;2023-04-30T08:23:35;9.27;;;4.10;;
5823;SDS011;2938;52.254;12.988;2023-04-30T08:26:01;20.15;;;3.78;;
5823;SDS011;2938;52.254;12.988;2023-04-30T08:28:26;7.43;;;3.08;;
5823;SDS011;2938;52.254;12.988;2023-04-30T08:30:51;12.50;;;3.97;;
5823;SDS011;2938;52.254;12.988;2023-04-30T08:33:16;11.55;;;3.85;;
5823;SDS011;2938;52.254;12.988;2023-04-30T08:35:42;11.88;;;3.25;;
5823;SDS011;2938;52.254;12.988;2023-04-30T08:38:07;7.80;;;2.75;;
5823;SDS011;2938;52.254;12.988;2023-04-30T08:40:34;10.98;;;3.55;;
5823;SDS011;2938;52.254;12.988;2023-04-30T08:43:03;6.95;;;2.85;;
5823;SDS011;2938;52.254;12.988;2023-04-30T08:45:34;12.18;;;3.13;;
5823;SDS011;2938;52.254;12.988;2023-04-30T08:48:03;9.27;;;3.38;;
5823;SDS011;2938;52.254;12.988;2023-04-30T08:50:28;8.13;;;2.53;;
5823;SDS011;2938;52.254;12.988;2023-04-30T08:52:54;6.30;;;2.80;;
5823;SDS011;2938;52.254;12.988;2023-04-30T08:55:19;10.23;;;3.42;;
5823;SDS011;2938;52.254;12.988;2023-04-30T08:57:45;8.48;;;3.08;;
5823;SDS011;2938;52.254;12.988;2023-04-30T09:00:10;9.30;;;2.88;;
5823;SDS011;2938;52.254;12.988;2023-04-30T09:02:39;9.88;;;2.83;;
5823;SDS011;2938;52.254;12.988;2023-04-30T09:05:13;8.60;;;3.97;;
5823;SDS011;2938;52.254;12.988;2023-04-30T09:07:39;5.22;;;2.92;;
5823;SDS011;2938;52.254;12.988;2023-04-30T09:10:13;5.55;;;3.03;;
5823;SDS011;2938;52.254;12.988;2023-04-30T09:12:40;9.43;;;3.03;;
5823;SDS011;2938;52.254;12.988;2023-04-30T09:15:08;5.88;;;2.70;;
5823;SDS011;2938;52.254;12.988;2023-04-30T09:17:34;6.78;;;2.92;;
5823;SDS011;2938;52.254;12.988;2023-04-30T09:20:09;4.13;;;2.22;;
5823;SDS011;2938;52.254;12.988;2023-04-30T09:22:36;8.20;;;2.75;;
5823;SDS011;2938;52.254;12.988;2023-04-30T09:25:02;9.48;;;3.60;;
5823;SDS011;2938;52.254;12.988;2023-04-30T09:27:28;7.72;;;2.70;;
5823;SDS011;2938;52.254;12.988;2023-04-30T09:29:53;1.98;;;1.60;;
5823;SDS011;2938;52.254;12.988;2023-04-30T09:32:18;9.95;;;2.10;;
5823;SDS011;2938;52.254;12.988;2023-04-30T09:34:44;10.25;;;3.45;;
5823;SDS011;2938;52.254;12.988;2023-04-30T09:37:09;4.22;;;2.47;;
5823;SDS011;2938;52.254;12.988;2023-04-30T09:39:52;4.68;;;2.35;;
5823;SDS011;2938;52.254;12.988;2023-04-30T09:42:18;7.00;;;3.10;;
5823;SDS011;2938;52.254;12.988;2023-04-30T09:44:44;4.90;;;2.55;;
5823;SDS011;2938;52.254;12.988;2023-04-30T09:47:10;6.80;;;3.47;;
5823;SDS011;2938;52.254;12.988;2023-04-30T09:49:38;10.90;;;3.13;;
5823;SDS011;2938;52.254;12.988;2023-04-30T09:52:05;4.10;;;2.47;;
5823;SDS011;2938;52.254;12.988;2023-04-30T09:54:31;9.60;;;3.00;;
5823;SDS011;2938;52.254;12.988;2023-04-30T09:56:57;11.48;;;2.97;;
5823;SDS011;2938;52.254;12.988;2023-04-30T10:04:25;6.95;;;2.65;;
5823;SDS011;2938;52.254;12.988;2023-04-30T10:06:53;6.28;;;3.00;;
5823;SDS011;2938;52.254;12.988;2023-04-30T10:09:19;8.57;;;2.60;;
5823;SDS011;2938;52.254;12.988;2023-04-30T10:11:44;4.50;;;2.03;;
5823;SDS011;2938;52.254;12.988;2023-04-30T10:14:11;12.13;;;4.05;;
5823;SDS011;2938;52.254;12.988;2023-04-30T10:16:43;6.22;;;2.22;;
5823;SDS011;2938;52.254;12.988;2023-04-30T10:19:13;3.85;;;1.75;;
5823;SDS011;2938;52.254;12.988;2023-04-30T10:21:42;3.67;;;2.08;;
5823;SDS011;2938;52.254;12.988;2023-04-30T10:24:11;6.50;;;2.65;;
5823;SDS011;2938;52.254;12.988;2023-04-30T10:26:37;3.47;;;2.58;;
5823;SDS011;2938;52.254;12.988;2023-04-30T10:29:03;7.00;;;2.60;;
5823;SDS011;2938;52.254;12.988;2023-04-30T10:31:29;6.57;;;2.08;;
5823;SDS011;2938;52.254;12.988;2023-04-30T10:34:02;4.85;;;2.30;;
5823;SDS011;2938;52.254;12.988;2023-04-30T10:36:41;8.23;;;2.35;;
5823;SDS011;2938;52.254;12.988;2023-04-30T10:39:12;7.32;;;2.95;;
5823;SDS011;2938;52.254;12.988;2023-04-30T10:41:39;5.20;;;2.70;;
5823;SDS011;2938;52.254;12.988;2023-04-30T10:44:06;9.95;;;2.55;;
5823;SDS011;2938;52.254;12.988;2023-04-30T10:46:33;6.03;;;2.67;;
5823;SDS011;2938;52.254;12.988;2023-04-30T10:48:59;10.55;;;3.13;;
5823;SDS011;2938;52.254;12.988;2023-04-30T10:51:28;7.25;;;3.38;;
5823;SDS011;2938;52.254;12.988;2023-04-30T10:54:08;6.57;;;3.05;;
5823;SDS011;2938;52.254;12.988;2023-04-30T10:56:34;5.35;;;2.45;;
5823;SDS011;2938;52.254;12.988;2023-04-30T10:59:00;6.15;;;2.53;;
5823;SDS011;2938;52.254;12.988;2023-04-30T11:01:28;4.72;;;1.98;;
5823;SDS011;2938;52.254;12.988;2023-04-30T11:04:05;7.95;;;3.53;;
5823;SDS011;2938;52.254;12.988;2023-04-30T11:09:34;5.97;;;2.95;;
5823;SDS011;2938;52.254;12.988;2023-04-30T11:12:01;10.82;;;2.38;;
5823;SDS011;2938;52.254;12.988;2023-04-30T11:14:30;7.53;;;2.33;;
5823;SDS011;2938;52.254;12.988;2023-04-30T11:16:56;3.88;;;2.67;;
5823;SDS011;2938;52.254;12.988;2023-04-30T11:19:23;3.90;;;2.08;;
5823;SDS011;2938;52.254;12.988;2023-04-30T11:24:48;7.30;;;2.72;;
5823;SDS011;2938;52.254;12.988;2023-04-30T11:27:23;5.35;;;1.70;;
5823;SDS011;2938;52.254;12.988;2023-04-30T11:29:50;3.95;;;2.45;;
5823;SDS011;2938;52.254;12.988;2023-04-30T11:32:17;4.47;;;2.40;;
5823;SDS011;2938;52.254;12.988;2023-04-30T11:34:43;3.53;;;1.90;;
5823;SDS011;2938;52.254;12.988;2023-04-30T11:37:11;5.43;;;2.30;;
5823;SDS011;2938;52.254;12.988;2023-04-30T11:39:39;6.68;;;3.30;;
5823;SDS011;2938;52.254;12.988;2023-04-30T11:42:05;10.48;;;3.10;;
5823;SDS011;2938;52.254;12.988;2023-04-30T11:44:31;4.85;;;2.45;;
5823;SDS011;2938;52.254;12.988;2023-04-30T11:46:57;4.88;;;2.53;;
5823;SDS011;2938;52.254;12.988;2023-04-30T11:49:22;3.78;;;2.08;;
5823;SDS011;2938;52.254;12.988;2023-04-30T11:51:48;6.40;;;1.98;;
5823;SDS011;2938;52.254;12.988;2023-04-30T11:54:14;3.15;;;1.98;;
5823;SDS011;2938;52.254;12.988;2023-04-30T11:56:44;3.75;;;2.55;;
5823;SDS011;2938;52.254;12.988;2023-04-30T11:59:12;5.03;;;2.42;;
5823;SDS011;2938;52.254;12.988;2023-04-30T12:01:37;6.90;;;2.53;;
5823;SDS011;2938;52.254;12.988;2023-04-30T12:04:04;7.80;;;3.13;;
5823;SDS011;2938;52.254;12.988;2023-04-30T12:06:30;4.07;;;2.15;;
5823;SDS011;2938;52.254;12.988;2023-04-30T12:08:55;5.93;;;2.80;;
5823;SDS011;2938;52.254;12.988;2023-04-30T12:11:24;7.82;;;3.10;;
5823;SDS011;2938;52.254;12.988;2023-04-30T12:13:52;8.23;;;2.60;;
5823;SDS011;2938;52.254;12.988;2023-04-30T12:16:18;6.13;;;3.45;;
5823;SDS011;2938;52.254;12.988;2023-04-30T12:18:43;6.97;;;2.97;;
5823;SDS011;2938;52.254;12.988;2023-04-30T12:21:09;5.38;;;2.58;;
5823;SDS011;2938;52.254;12.988;2023-04-30T12:23:34;4.38;;;2.10;;
5823;SDS011;2938;52.254;12.988;2023-04-30T12:26:00;12.50;;;3.03;;
5823;SDS011;2938;52.254;12.988;2023-04-30T12:28:25;5.35;;;2.42;;
5823;SDS011;2938;52.254;12.988;2023-04-30T12:30:52;7.18;;;2.53;;
5823;SDS011;2938;52.254;12.988;2023-04-30T12:33:17;5.20;;;3.00;;
5823;SDS011;2938;52.254;12.988;2023-04-30T12:35:42;7.90;;;3.15;;
5823;SDS011;2938;52.254;12.988;2023-04-30T12:38:08;6.18;;;3.05;;
5823;SDS011;2938;52.254;12.988;2023-04-30T12:40:34;5.88;;;2.85;;
5823;SDS011;2938;52.254;12.988;2023-04-30T12:43:00;7.25;;;3.17;;
5823;SDS011;2938;52.254;12.988;2023-04-30T12:48:11;5.75;;;3.53;;
5823;SDS011;2938;52.254;12.988;2023-04-30T12:50:37;6.60;;;2.88;;
5823;SDS011;2938;52.254;12.988;2023-04-30T12:53:03;10.63;;;3.40;;
5823;SDS011;2938;52.254;12.988;2023-04-30T12:55:29;7.07;;;3.03;;
5823;SDS011;2938;52.254;12.988;2023-04-30T12:58:29;5.38;;;2.65;;
5823;SDS011;2938;52.254;12.988;2023-04-30T13:00:48;10.20;;;3.03;;
5823;SDS011;2938;52.254;12.988;2023-04-30T13:03:15;8.05;;;2.97;;
5823;SDS011;2938;52.254;12.988;2023-04-30T13:05:42;8.10;;;3.03;;
5823;SDS011;2938;52.254;12.988;2023-04-30T13:08:11;7.35;;;2.50;;
5823;SDS011;2938;52.254;12.988;2023-04-30T13:10:37;7.10;;;2.88;;
5823;SDS011;2938;52.254;12.988;2023-04-30T13:13:02;6.97;;;2.53;;
5823;SDS011;2938;52.254;12.988;2023-04-30T13:15:28;10.85;;;3.00;;
5823;SDS011;2938;52.254;12.988;2023-04-30T13:17:53;5.30;;;2.85;;
5823;SDS011;2938;52.254;12.988;2023-04-30T13:20:18;4.80;;;2.75;;
5823;SDS011;2938;52.254;12.988;2023-04-30T13:22:46;13.57;;;3.33;;
5823;SDS011;2938;52.254;12.988;2023-04-30T13:25:11;4.65;;;2.40;;
5823;SDS011;2938;52.254;12.988;2023-04-30T13:27:36;5.50;;;2.63;;
5823;SDS011;2938;52.254;12.988;2023-04-30T13:30:02;4.60;;;2.80;;
5823;SDS011;2938;52.254;12.988;2023-04-30T13:32:28;3.08;;;2.28;;
5823;SDS011;2938;52.254;12.988;2023-04-30T13:34:53;9.95;;;5.05;;
5823;SDS011;2938;52.254;12.988;2023-04-30T13:37:19;7.72;;;3.63;;
5823;SDS011;2938;52.254;12.988;2023-04-30T13:39:45;8.65;;;2.78;;
5823;SDS011;2938;52.254;12.988;2023-04-30T13:42:10;8.85;;;2.80;;
5823;SDS011;2938;52.254;12.988;2023-04-30T13:44:36;8.88;;;2.85;;
5823;SDS011;2938;52.254;12.988;2023-04-30T13:47:01;14.75;;;2.83;;
5823;SDS011;2938;52.254;12.988;2023-04-30T13:49:29;13.07;;;3.70;;
5823;SDS011;2938;52.254;12.988;2023-04-30T13:51:55;8.65;;;2.92;;
5823;SDS011;2938;52.254;12.988;2023-04-30T13:54:20;9.20;;;3.35;;
5823;SDS011;2938;52.254;12.988;2023-04-30T13:56:45;6.88;;;3.55;;
5823;SDS011;2938;52.254;12.988;2023-04-30T13:59:12;9.73;;;4.10;;
5823;SDS011;2938;52.254;12.988;2023-04-30T14:01:37;5.05;;;3.17;;
5823;SDS011;2938;52.254;12.988;2023-04-30T14:04:04;5.22;;;3.03;;
5823;SDS011;2938;52.254;12.988;2023-04-30T14:06:29;10.63;;;3.25;;
5823;SDS011;2938;52.254;12.988;2023-04-30T14:08:55;7.05;;;2.50;;
5823;SDS011;2938;52.254;12.988;2023-04-30T14:11:20;11.50;;;2.72;;
5823;SDS011;2938;52.254;12.988;2023-04-30T14:13:48;7.63;;;2.85;;
5823;SDS011;2938;52.254;12.988;2023-04-30T14:16:16;8.35;;;3.15;;
5823;SDS011;2938;52.254;12.988;2023-04-30T14:18:42;9.75;;;3.10;;
5823;SDS011;2938;52.254;12.988;2023-04-30T14:21:08;7.60;;;4.35;;
5823;SDS011;2938;52.254;12.988;2023-04-30T14:23:33;9.88;;;3.10;;
5823;SDS011;2938;52.254;12.988;2023-04-30T14:26:06;10.07;;;3.10;;
5823;SDS011;2938;52.254;12.988;2023-04-30T14:28:37;7.13;;;2.75;;
5823;SDS011;2938;52.254;12.988;2023-04-30T14:31:11;10.98;;;3.63;;
5823;SDS011;2938;52.254;12.988;2023-04-30T14:33:36;6.68;;;2.67;;
5823;SDS011;2938;52.254;12.988;2023-04-30T14:36:02;9.23;;;2.92;;
5823;SDS011;2938;52.254;12.988;2023-04-30T14:38:27;6.55;;;3.03;;
5823;SDS011;2938;52.254;12.988;2023-04-30T14:40:52;7.50;;;3.08;;
5823;SDS011;2938;52.254;12.988;2023-04-30T14:43:18;9.88;;;2.95;;
5823;SDS011;2938;52.254;12.988;2023-04-30T14:45:43;5.82;;;2.78;;
5823;SDS011;2938;52.254;12.988;2023-04-30T14:48:09;11.30;;;3.25;;
5823;SDS011;2938;52.254;12.988;2023-04-30T14:50:35;7.70;;;3.13;;
5823;SDS011;2938;52.254;12.988;2023-04-30T14:53:00;8.32;;;3.05;;
5823;SDS011;2938;52.254;12.988;2023-04-30T14:55:27;6.60;;;2.90;;
5823;SDS011;2938;52.254;12.988;2023-04-30T14:57:53;4.32;;;2.30;;
5823;SDS011;2938;52.254;12.988;2023-04-30T15:00:19;4.20;;;2.90;;
5823;SDS011;2938;52.254;12.988;2023-04-30T15:02:44;6.65;;;2.88;;
5823;SDS011;2938;52.254;12.988;2023-04-30T15:05:10;7.68;;;2.47;;
5823;SDS011;2938;52.254;12.988;2023-04-30T15:07:35;7.95;;;3.30;;
5823;SDS011;2938;52.254;12.988;2023-04-30T15:10:01;8.35;;;4.85;;
5823;SDS011;2938;52.254;12.988;2023-04-30T15:12:27;8.57;;;3.20;;
5823;SDS011;2938;52.254;12.988;2023-04-30T15:14:52;7.22;;;2.95;;
5823;SDS011;2938;52.254;12.988;2023-04-30T15:17:18;9.18;;;2.70;;
5823;SDS011;2938;52.254;12.988;2023-04-30T15:19:43;10.05;;;3.60;;